Airfield :
LOGIN :

Register | Disclaimer

   EN    FR    IT 

 










Legend :    VFR   Marginal VFR   IFR   Intensive IFR   Very Intensive IFR
Visi :
Ceiling :
>= 8 km
>= 3000ft
5 to 8 km
1000 to 3000 ft
1500m to 5 km
500 to 1000 ft
800 to 1500m
200 to 500 ft
< 800m
< 200 ft
Symbols :   Thunderstorms  Fog  Heavy snow  Heavy precipitations  Wind > 20 kt
SIGMETs :     Misc.  Thunderstorms  Icing  Turbulence  Mountain Waves  Volcanic Ashes






- Airport Elevation : 121 ft
- IATA code : HUY


EGNJ - Humberside

CURRENT METAR :
  • 022020Z AUTO 10004KT 9999 NCD 15/09 Q1015

EXPIRED METARs :
  • 021950Z AUTO 09005KT 9999 NCD 15/09 Q1015
  • 021920Z AUTO 08006KT 9999 NCD 16/08 Q1015
  • 021850Z AUTO 07008KT 9999 NCD 18/07 Q1015
  • 021820Z AUTO 07006KT 9999 NCD 18/08 Q1016
  • 021750Z AUTO 07007KT 9999 NCD 19/07 Q1016

TAF TAF EGNJ
Valid from the 02 at 21:00 until the 03 at 06:00 UTC


021956Z 0221/0306 06005KT 9999 FEW045
PROB30
TEMPO 0304/0306 7000 -RA
ATIS : +44 1652 682 020



MET'MAP, your aeronautical weather chart ! - Copyright ORBIFLY December 2007 - Disclaimer

ORBIFLY MET'MAP TEAM :

Programming & Development : Alexandra Zaïnal
Concept & original design : Baudouin d'Aumeries
Assistance for programming : Marc-Olivier Méhu
Technical & hardware support : Manuel Goepfert

Contact : metmap@orbifly.com




SOURCES & CREDITS :

   NOAA